Time;durP1;ratioP1;P1;durP2;ratioP2;P2;SDS_P1;SDS_P2;PMS_P1;PMS_P2;Temp;Humidity;BMP_temperature;BMP_pressure;BME280_temperature;BME280_humidity;BME280_pressure;Samples;Min_cycle;Max_cycle;Signal;HPM_P1;HPM_P2
2023/12/02 00:02:13;;;;;;;;;;;25.00;99.90;;;;;;5093903;28;20373;-71
2023/12/02 00:04:40;;;;;;;;;;;25.30;99.90;;;;;;5093929;28;19908;-68
2023/12/02 00:07:06;;;;;;;;;;;25.30;99.90;;;;;;5075637;28;19908;-67
2023/12/02 00:09:34;;;;;;;;;;;25.20;99.90;;;;;;5093667;28;19958;-67
2023/12/02 00:12:01;;;;;;;;;;;25.10;99.90;;;;;;5093576;28;19999;-69
2023/12/02 00:14:27;;;;;;;;;;;25.10;99.90;;;;;;5093529;28;20293;-71
2023/12/02 00:16:54;;;;;;;;;;;25.00;99.90;;;;;;5093726;28;19908;-69
2023/12/02 00:19:21;;;;;;;;;;;25.00;99.90;;;;;;5093580;28;19915;-67
2023/12/02 00:21:51;;;;;;;;;;;25.10;99.90;;;;;;5093758;28;19951;-70
2023/12/02 00:24:21;;;;;;;;;;;25.10;99.90;;;;;;5075470;28;19909;-68
2023/12/02 00:26:47;;;;;;;;;;;25.10;99.90;;;;;;5075514;28;19969;-69
2023/12/02 00:29:15;;;;;;;;;;;25.40;99.90;;;;;;5075201;28;20288;-68
2023/12/02 00:31:41;;;;;;;;;;;25.40;99.90;;;;;;5075169;28;20361;-69
2023/12/02 00:34:08;;;;;;;;;;;25.60;99.90;;;;;;5075188;28;20065;-67
2023/12/02 00:36:36;;;;;;;;;;;25.70;99.90;;;;;;5092749;28;19908;-67
2023/12/02 00:39:02;;;;;;;;;;;26.00;99.90;;;;;;5093184;28;19962;-71
2023/12/02 00:41:29;;;;;;;;;;;26.10;99.90;;;;;;5093216;28;19908;-71
2023/12/02 00:43:56;;;;;;;;;;;26.40;99.90;;;;;;5093213;28;20357;-69
2023/12/02 00:46:23;;;;;;;;;;;26.30;99.90;;;;;;5093002;28;19912;-67
2023/12/02 00:48:49;;;;;;;;;;;26.50;99.90;;;;;;5093176;28;19915;-68
2023/12/02 00:51:16;;;;;;;;;;;26.70;99.90;;;;;;5093415;28;19908;-67
2023/12/02 00:53:44;;;;;;;;;;;26.90;99.90;;;;;;5092974;28;19946;-69
2023/12/02 00:56:14;;;;;;;;;;;26.60;99.90;;;;;;5091876;28;21340;-70
2023/12/02 00:58:40;;;;;;;;;;;26.60;99.90;;;;;;5074714;28;19954;-69
2023/12/02 01:01:07;;;;;;;;;;;26.70;99.90;;;;;;5092605;28;19951;-66
2023/12/02 01:03:34;;;;;;;;;;;26.70;99.90;;;;;;5093062;28;19915;-68
2023/12/02 01:06:01;;;;;;;;;;;26.80;99.90;;;;;;5092861;28;19914;-67
2023/12/02 01:08:27;;;;;;;;;;;26.70;99.90;;;;;;5092558;28;19908;-67
2023/12/02 01:10:54;;;;;;;;;;;26.50;99.90;;;;;;5092852;28;19908;-66
2023/12/02 01:13:20;;;;;;;;;;;26.40;99.90;;;;;;5093173;28;19908;-67
2023/12/02 01:15:47;;;;;;;;;;;26.40;99.90;;;;;;5092657;28;19915;-71
2023/12/02 01:18:14;;;;;;;;;;;26.50;99.90;;;;;;5092953;28;19908;-67
2023/12/02 01:20:40;;;;;;;;;;;26.90;99.90;;;;;;5092709;28;20026;-67
2023/12/02 01:23:07;;;;;;;;;;;27.10;99.90;;;;;;5092743;28;19918;-67
2023/12/02 01:25:33;;;;;;;;;;;27.20;99.90;;;;;;5092749;28;19994;-67
2023/12/02 01:28:00;;;;;;;;;;;27.30;99.90;;;;;;5092506;28;20352;-66
2023/12/02 01:30:27;;;;;;;;;;;27.30;99.90;;;;;;5092760;28;19931;-68
2023/12/02 01:32:54;;;;;;;;;;;27.50;99.90;;;;;;5092489;28;20341;-67
2023/12/02 01:35:20;;;;;;;;;;;27.60;99.90;;;;;;5092489;28;19924;-68
2023/12/02 01:37:47;;;;;;;;;;;27.50;99.90;;;;;;5092686;28;20299;-71
2023/12/02 01:40:14;;;;;;;;;;;27.50;99.90;;;;;;5092600;28;19947;-69
2023/12/02 01:42:40;;;;;;;;;;;27.50;99.90;;;;;;5092541;28;19915;-68
2023/12/02 01:45:07;;;;;;;;;;;27.50;99.90;;;;;;5092753;28;19938;-67
2023/12/02 01:47:34;;;;;;;;;;;27.70;99.90;;;;;;5094477;28;20296;-68
2023/12/02 01:50:01;;;;;;;;;;;28.30;99.90;;;;;;5096440;28;19916;-67
2023/12/02 01:52:27;;;;;;;;;;;28.80;99.90;;;;;;5096217;28;20006;-68
2023/12/02 01:54:54;;;;;;;;;;;28.90;99.90;;;;;;5096339;28;19968;-67
2023/12/02 01:57:21;;;;;;;;;;;28.90;99.90;;;;;;5096132;28;19954;-72
2023/12/02 01:59:54;;;;;;;;;;;29.10;99.90;;;;;;5096025;28;19908;-69
2023/12/02 02:02:21;;;;;;;;;;;29.20;99.90;;;;;;5096160;28;20003;-67
2023/12/02 02:04:48;;;;;;;;;;;29.00;99.90;;;;;;5096327;28;19908;-67
2023/12/02 02:07:15;;;;;;;;;;;29.00;99.90;;;;;;5096106;28;19931;-70
2023/12/02 02:09:46;;;;;;;;;;;28.90;99.90;;;;;;5095739;28;19908;-69
2023/12/02 02:12:13;;;;;;;;;;;28.70;99.90;;;;;;5095924;28;19908;-67
2023/12/02 02:14:40;;;;;;;;;;;28.50;99.90;;;;;;5095875;28;20019;-67
2023/12/02 02:17:07;;;;;;;;;;;28.40;99.90;;;;;;5096149;28;19963;-67
2023/12/02 02:19:33;;;;;;;;;;;28.30;99.90;;;;;;5095855;28;20345;-67
2023/12/02 02:22:00;;;;;;;;;;;28.10;99.90;;;;;;5095760;28;19955;-67
2023/12/02 02:24:27;;;;;;;;;;;27.90;99.90;;;;;;5095615;28;19909;-68
2023/12/02 02:26:53;;;;;;;;;;;27.60;99.90;;;;;;5095765;28;19908;-67
2023/12/02 02:29:20;;;;;;;;;;;27.40;99.90;;;;;;5095678;28;19971;-67
2023/12/02 02:31:47;;;;;;;;;;;27.20;99.90;;;;;;5095493;28;20280;-67
2023/12/02 02:34:14;;;;;;;;;;;27.10;99.90;;;;;;5095605;28;19912;-68
2023/12/02 02:36:40;;;;;;;;;;;26.70;99.90;;;;;;5095505;28;20379;-71
2023/12/02 02:39:07;;;;;;;;;;;26.70;99.90;;;;;;5095930;28;19914;-69
2023/12/02 02:41:35;;;;;;;;;;;26.80;99.90;;;;;;5096470;28;20432;-67
2023/12/02 02:44:02;;;;;;;;;;;26.90;99.90;;;;;;5095706;28;19916;-69
2023/12/02 02:46:29;;;;;;;;;;;27.00;99.90;;;;;;5095557;28;19908;-69
2023/12/02 02:48:55;;;;;;;;;;;27.00;99.90;;;;;;5095318;28;19914;-72
2023/12/02 02:51:22;;;;;;;;;;;27.10;99.90;;;;;;5095309;28;19912;-68
2023/12/02 02:53:49;;;;;;;;;;;27.10;99.90;;;;;;5095104;28;19927;-67
2023/12/02 02:56:15;;;;;;;;;;;27.10;99.90;;;;;;5094886;28;19961;-67
2023/12/02 02:58:42;;;;;;;;;;;27.10;99.90;;;;;;5094456;28;19912;-66
2023/12/02 03:01:08;;;;;;;;;;;27.10;99.90;;;;;;5095353;28;19990;-67
2023/12/02 03:03:35;;;;;;;;;;;27.20;99.90;;;;;;5095281;28;19914;-68
2023/12/02 03:06:02;;;;;;;;;;;27.20;99.90;;;;;;5095109;28;19912;-67
2023/12/02 03:08:28;;;;;;;;;;;27.20;99.90;;;;;;5094871;28;19943;-68
2023/12/02 03:10:55;;;;;;;;;;;27.20;99.90;;;;;;5094847;28;19961;-67
2023/12/02 03:13:22;;;;;;;;;;;27.10;99.90;;;;;;5094935;28;20429;-68
2023/12/02 03:15:48;;;;;;;;;;;27.00;99.90;;;;;;5094742;28;19912;-70
2023/12/02 03:18:15;;;;;;;;;;;27.00;99.90;;;;;;5094493;28;19974;-71
2023/12/02 03:20:41;;;;;;;;;;;27.10;99.90;;;;;;5094527;28;19953;-67
2023/12/02 03:23:08;;;;;;;;;;;27.30;99.90;;;;;;5094659;28;19961;-69
2023/12/02 03:25:35;;;;;;;;;;;27.30;99.90;;;;;;5094823;28;19908;-68
2023/12/02 03:28:01;;;;;;;;;;;27.40;99.90;;;;;;5094525;28;20277;-68
2023/12/02 03:30:28;;;;;;;;;;;27.00;99.90;;;;;;5094708;28;19908;-68
2023/12/02 03:32:55;;;;;;;;;;;27.00;99.90;;;;;;5094720;28;19909;-67
2023/12/02 03:35:22;;;;;;;;;;;27.00;99.90;;;;;;5094249;28;19920;-69
2023/12/02 03:37:48;;;;;;;;;;;27.50;99.90;;;;;;5094472;28;20278;-70
2023/12/02 03:40:15;;;;;;;;;;;27.90;99.90;;;;;;5094427;28;19959;-68
2023/12/02 03:42:41;;;;;;;;;;;28.40;99.90;;;;;;5094325;28;19909;-68
2023/12/02 03:45:09;;;;;;;;;;;28.70;99.90;;;;;;5075958;28;20353;-67
2023/12/02 03:47:36;;;;;;;;;;;28.80;99.90;;;;;;5093925;28;19908;-68
2023/12/02 03:50:04;;;;;;;;;;;29.00;99.90;;;;;;5075854;28;19915;-69
2023/12/02 03:52:31;;;;;;;;;;;28.00;99.90;;;;;;5093891;28;20011;-70
2023/12/02 03:54:58;;;;;;;;;;;27.30;99.90;;;;;;5094017;28;20026;-67
2023/12/02 03:57:24;;;;;;;;;;;27.40;99.90;;;;;;5093882;28;19908;-67
2023/12/02 03:59:51;;;;;;;;;;;27.60;99.90;;;;;;5093751;28;20346;-67
2023/12/02 04:02:17;;;;;;;;;;;27.60;99.90;;;;;;5093780;28;20369;-70
2023/12/02 04:04:44;;;;;;;;;;;27.60;99.90;;;;;;5094003;28;19995;-67
2023/12/02 04:07:11;;;;;;;;;;;27.70;99.90;;;;;;5094000;28;19912;-68
2023/12/02 04:09:38;;;;;;;;;;;27.90;99.90;;;;;;5093542;28;19919;-67
2023/12/02 04:12:04;;;;;;;;;;;28.00;99.90;;;;;;5093201;28;19916;-68
2023/12/02 04:14:31;;;;;;;;;;;27.40;99.90;;;;;;5093593;28;19916;-66
2023/12/02 04:16:57;;;;;;;;;;;27.00;99.90;;;;;;5093614;28;19908;-67
2023/12/02 04:19:24;;;;;;;;;;;27.20;99.90;;;;;;5093611;28;20329;-67
2023/12/02 04:21:51;;;;;;;;;;;27.10;99.90;;;;;;5093658;28;19908;-67
2023/12/02 04:24:17;;;;;;;;;;;27.00;99.90;;;;;;5093264;28;19951;-68
2023/12/02 04:26:44;;;;;;;;;;;26.90;99.90;;;;;;5093588;28;19908;-74
2023/12/02 04:29:10;;;;;;;;;;;26.90;99.90;;;;;;5093435;28;19908;-67
2023/12/02 04:31:37;;;;;;;;;;;27.00;99.90;;;;;;5093477;28;19927;-68
2023/12/02 04:34:04;;;;;;;;;;;27.00;99.90;;;;;;5093199;28;20373;-68
2023/12/02 04:36:30;;;;;;;;;;;26.40;99.90;;;;;;5093434;28;19919;-73
2023/12/02 04:38:57;;;;;;;;;;;26.80;99.90;;;;;;5093282;28;19908;-68
2023/12/02 04:41:24;;;;;;;;;;;27.90;99.90;;;;;;5093057;28;19915;-68
2023/12/02 04:43:51;;;;;;;;;;;30.10;99.90;;;;;;5093207;28;19996;-68
2023/12/02 04:46:17;;;;;;;;;;;31.70;97.60;;;;;;5093541;28;19908;-69
2023/12/02 04:48:44;;;;;;;;;;;33.30;95.00;;;;;;5092991;28;19908;-69
2023/12/02 04:51:10;;;;;;;;;;;33.30;93.90;;;;;;5093221;28;19908;-69
2023/12/02 04:53:37;;;;;;;;;;;32.80;94.10;;;;;;5092905;28;19945;-68
2023/12/02 04:56:05;;;;;;;;;;;31.70;95.10;;;;;;5093002;28;20026;-67
2023/12/02 04:58:31;;;;;;;;;;;31.10;96.20;;;;;;5093265;28;20375;-68
2023/12/02 05:00:58;;;;;;;;;;;30.60;96.50;;;;;;5092871;28;19908;-68
2023/12/02 05:03:25;;;;;;;;;;;29.90;96.90;;;;;;5092787;28;19997;-68
2023/12/02 05:05:51;;;;;;;;;;;29.00;98.30;;;;;;5092900;28;19908;-68
2023/12/02 05:08:18;;;;;;;;;;;28.20;99.90;;;;;;5092920;28;19908;-68
2023/12/02 05:10:45;;;;;;;;;;;27.80;99.90;;;;;;5092864;28;19969;-71
2023/12/02 05:13:11;;;;;;;;;;;27.40;99.90;;;;;;5092663;28;20002;-67
2023/12/02 05:15:38;;;;;;;;;;;27.10;99.90;;;;;;5092677;28;20353;-69
2023/12/02 05:18:05;;;;;;;;;;;26.90;99.90;;;;;;5092576;28;19915;-69
2023/12/02 05:20:32;;;;;;;;;;;26.80;99.90;;;;;;5092794;28;20392;-68
2023/12/02 05:22:58;;;;;;;;;;;26.70;99.90;;;;;;5095912;28;19951;-67
2023/12/02 05:25:25;;;;;;;;;;;26.70;99.90;;;;;;5096586;28;20010;-66
2023/12/02 05:27:52;;;;;;;;;;;26.50;99.90;;;;;;5096706;28;19931;-66
2023/12/02 05:30:18;;;;;;;;;;;26.30;99.90;;;;;;5097048;28;19904;-68
2023/12/02 05:32:45;;;;;;;;;;;26.30;99.90;;;;;;5096699;28;19908;-67
2023/12/02 05:35:12;;;;;;;;;;;26.40;99.90;;;;;;5096417;28;20024;-67
2023/12/02 05:37:40;;;;;;;;;;;26.60;99.90;;;;;;5096643;28;19908;-71
2023/12/02 05:40:10;;;;;;;;;;;26.90;99.90;;;;;;5096196;28;20269;-68
2023/12/02 05:42:36;;;;;;;;;;;27.00;99.90;;;;;;5078502;28;19912;-71
2023/12/02 05:45:03;;;;;;;;;;;27.00;99.90;;;;;;5096649;28;20276;-67
2023/12/02 05:47:30;;;;;;;;;;;27.10;99.90;;;;;;5096608;28;20052;-66
2023/12/02 05:49:56;;;;;;;;;;;27.00;99.90;;;;;;5096558;28;19908;-68
2023/12/02 05:52:23;;;;;;;;;;;27.20;99.90;;;;;;5096447;28;20025;-69
2023/12/02 05:54:49;;;;;;;;;;;27.10;99.90;;;;;;5096207;28;19916;-67
2023/12/02 05:57:16;;;;;;;;;;;27.10;99.90;;;;;;5096668;28;19908;-68
2023/12/02 05:59:43;;;;;;;;;;;27.10;99.90;;;;;;5096508;28;20291;-69
2023/12/02 06:02:10;;;;;;;;;;;27.10;99.90;;;;;;5096323;28;19915;-67
2023/12/02 06:04:37;;;;;;;;;;;27.10;99.90;;;;;;5096030;28;19912;-68
2023/12/02 06:07:04;;;;;;;;;;;26.80;99.90;;;;;;5078106;28;19915;-69
2023/12/02 06:09:30;;;;;;;;;;;26.70;99.90;;;;;;5096100;28;19909;-72
2023/12/02 06:11:57;;;;;;;;;;;26.60;99.90;;;;;;5096068;28;20459;-68
2023/12/02 06:14:24;;;;;;;;;;;26.40;99.90;;;;;;5096068;28;20015;-68
2023/12/02 06:16:50;;;;;;;;;;;26.40;99.90;;;;;;5095936;28;19954;-68
2023/12/02 06:19:20;;;;;;;;;;;26.60;99.90;;;;;;5096171;28;20361;-67
2023/12/02 06:21:47;;;;;;;;;;;26.50;99.90;;;;;;5095885;28;19916;-68
2023/12/02 06:24:14;;;;;;;;;;;26.40;99.90;;;;;;5095919;28;20010;-69
2023/12/02 06:26:40;;;;;;;;;;;26.20;99.90;;;;;;5095692;28;19908;-69
2023/12/02 06:29:07;;;;;;;;;;;26.20;99.90;;;;;;5095942;28;19908;-68
2023/12/02 06:31:34;;;;;;;;;;;26.40;99.90;;;;;;5095870;28;19915;-67
2023/12/02 06:34:00;;;;;;;;;;;26.10;99.90;;;;;;5094309;28;19912;-72
2023/12/02 06:36:27;;;;;;;;;;;26.10;99.90;;;;;;5095327;28;19908;-68
2023/12/02 06:38:54;;;;;;;;;;;26.10;99.90;;;;;;5095477;28;19908;-69
2023/12/02 06:41:20;;;;;;;;;;;26.10;99.90;;;;;;5095461;28;19944;-68
2023/12/02 06:43:48;;;;;;;;;;;25.90;99.90;;;;;;5095717;28;19962;-68
2023/12/02 06:46:23;;;;;;;;;;;25.80;99.90;;;;;;5095231;28;20345;-67
2023/12/02 06:48:50;;;;;;;;;;;25.60;99.90;;;;;;5095077;28;19943;-68
2023/12/02 06:51:17;;;;;;;;;;;25.50;99.90;;;;;;5095233;28;20391;-69
2023/12/02 06:53:44;;;;;;;;;;;25.40;99.90;;;;;;5094878;28;20023;-73
2023/12/02 06:56:17;;;;;;;;;;;25.30;99.90;;;;;;5095100;28;19912;-69
2023/12/02 06:58:43;;;;;;;;;;;25.40;99.90;;;;;;5094985;28;19908;-69
2023/12/02 07:01:10;;;;;;;;;;;25.40;99.90;;;;;;5095151;28;19908;-70
2023/12/02 07:03:40;;;;;;;;;;;25.30;99.90;;;;;;5095079;28;19908;-68
2023/12/02 07:06:06;;;;;;;;;;;25.40;99.90;;;;;;5095164;28;19931;-68
2023/12/02 07:08:33;;;;;;;;;;;25.50;99.90;;;;;;5094784;28;19908;-68
2023/12/02 07:10:59;;;;;;;;;;;25.50;99.90;;;;;;5094876;28;19908;-69
2023/12/02 07:13:26;;;;;;;;;;;25.50;99.90;;;;;;5094883;28;19915;-71
2023/12/02 07:15:53;;;;;;;;;;;25.50;99.90;;;;;;5094737;28;19920;-68
2023/12/02 07:18:19;;;;;;;;;;;25.50;99.90;;;;;;5094807;28;19939;-68
2023/12/02 07:20:46;;;;;;;;;;;25.40;99.90;;;;;;5094729;28;19915;-68
2023/12/02 07:23:12;;;;;;;;;;;25.20;99.90;;;;;;5094656;28;20010;-68
2023/12/02 07:25:39;;;;;;;;;;;24.90;99.90;;;;;;5094310;28;19908;-74
2023/12/02 07:28:06;;;;;;;;;;;24.70;99.90;;;;;;5094332;28;19939;-68
2023/12/02 07:30:33;;;;;;;;;;;24.50;99.90;;;;;;5094629;28;20061;-68
2023/12/02 07:32:59;;;;;;;;;;;24.30;99.90;;;;;;5094398;28;20372;-69
2023/12/02 07:35:26;;;;;;;;;;;24.10;99.90;;;;;;5094435;28;19916;-70
2023/12/02 07:37:52;;;;;;;;;;;24.00;99.90;;;;;;5094616;28;19915;-71
2023/12/02 07:40:19;;;;;;;;;;;24.00;99.90;;;;;;5094183;28;19930;-68
2023/12/02 07:42:46;;;;;;;;;;;24.00;99.90;;;;;;5094207;28;19909;-68
2023/12/02 07:45:12;;;;;;;;;;;23.90;99.90;;;;;;5094050;28;20388;-67
2023/12/02 07:47:39;;;;;;;;;;;23.80;99.90;;;;;;5094231;28;20276;-66
2023/12/02 07:50:07;;;;;;;;;;;23.70;99.90;;;;;;5094351;28;19914;-67
2023/12/02 07:52:34;;;;;;;;;;;23.60;99.90;;;;;;5094062;28;19926;-66
2023/12/02 07:55:00;;;;;;;;;;;23.60;99.90;;;;;;5093958;28;19916;-67
2023/12/02 07:57:27;;;;;;;;;;;23.60;99.90;;;;;;5093655;28;19915;-66
2023/12/02 07:59:53;;;;;;;;;;;23.60;99.90;;;;;;5093968;28;20396;-68
2023/12/02 08:02:20;;;;;;;;;;;23.60;99.90;;;;;;5093909;28;19916;-66
2023/12/02 08:04:47;;;;;;;;;;;23.70;99.90;;;;;;5093524;28;20405;-69
2023/12/02 08:07:13;;;;;;;;;;;23.60;99.90;;;;;;5093500;28;19908;-67
2023/12/02 08:09:40;;;;;;;;;;;23.50;99.90;;;;;;5093576;28;20276;-67
2023/12/02 08:12:07;;;;;;;;;;;23.40;99.90;;;;;;5093371;28;20349;-68
2023/12/02 08:14:33;;;;;;;;;;;23.30;99.90;;;;;;5093459;28;19916;-68
2023/12/02 08:17:00;;;;;;;;;;;23.30;99.90;;;;;;5093766;28;19914;-67
2023/12/02 08:19:27;;;;;;;;;;;23.30;99.90;;;;;;5093958;28;20345;-67
2023/12/02 08:21:53;;;;;;;;;;;23.20;99.90;;;;;;5093786;28;20418;-67
2023/12/02 08:24:20;;;;;;;;;;;23.10;99.90;;;;;;5093158;28;19908;-67
2023/12/02 08:26:47;;;;;;;;;;;23.10;99.90;;;;;;5093021;28;19934;-68
2023/12/02 08:29:14;;;;;;;;;;;23.00;99.90;;;;;;5093659;28;20284;-68
2023/12/02 08:31:40;;;;;;;;;;;22.90;99.90;;;;;;5093478;28;19908;-69
2023/12/02 08:34:07;;;;;;;;;;;22.80;99.90;;;;;;5093227;28;19912;-68
2023/12/02 08:36:34;;;;;;;;;;;22.70;99.90;;;;;;5093217;28;20285;-71
2023/12/02 08:39:02;;;;;;;;;;;22.70;99.90;;;;;;5093168;28;19919;-73
2023/12/02 08:41:29;;;;;;;;;;;22.60;99.90;;;;;;5092977;28;19915;-69
2023/12/02 08:43:55;;;;;;;;;;;22.70;99.90;;;;;;5093335;28;19915;-71
2023/12/02 08:46:22;;;;;;;;;;;22.70;99.90;;;;;;5093174;28;19912;-72
2023/12/02 08:48:49;;;;;;;;;;;22.70;99.90;;;;;;5093252;28;19911;-72
2023/12/02 08:51:15;;;;;;;;;;;22.70;99.90;;;;;;5093141;28;19966;-69
2023/12/02 08:53:42;;;;;;;;;;;22.70;99.90;;;;;;5092698;28;19959;-70
2023/12/02 08:56:08;;;;;;;;;;;22.80;99.90;;;;;;5092496;28;20520;-69
2023/12/02 08:58:35;;;;;;;;;;;22.80;99.90;;;;;;5092930;28;19916;-69
2023/12/02 09:01:02;;;;;;;;;;;22.90;99.90;;;;;;5092696;28;20369;-67
2023/12/02 09:03:28;;;;;;;;;;;22.80;99.90;;;;;;5092933;28;19908;-68
2023/12/02 09:05:56;;;;;;;;;;;22.80;99.90;;;;;;5092713;28;20463;-68
2023/12/02 09:08:23;;;;;;;;;;;22.70;99.90;;;;;;5092452;28;19912;-66
2023/12/02 09:10:49;;;;;;;;;;;22.70;99.90;;;;;;5093014;28;19909;-67
2023/12/02 09:13:34;;;;;;;;;;;22.70;99.90;;;;;;5092918;28;20365;-69
2023/12/02 09:16:01;;;;;;;;;;;22.60;99.90;;;;;;5092974;28;19916;-69
2023/12/02 09:18:34;;;;;;;;;;;22.70;99.90;;;;;;5092620;28;19908;-68
2023/12/02 09:21:00;;;;;;;;;;;22.60;99.90;;;;;;5092617;28;19915;-67
2023/12/02 09:23:27;;;;;;;;;;;22.60;99.90;;;;;;5092556;28;19908;-69
2023/12/02 09:25:58;;;;;;;;;;;22.60;99.90;;;;;;5092668;28;19914;-74
2023/12/02 09:28:29;;;;;;;;;;;22.60;99.90;;;;;;5092407;28;19951;-67
2023/12/02 09:31:00;;;;;;;;;;;22.60;99.90;;;;;;5092642;28;19915;-69
2023/12/02 09:33:27;;;;;;;;;;;22.60;99.90;;;;;;5092572;28;19908;-67
2023/12/02 09:35:55;;;;;;;;;;;22.50;99.90;;;;;;5092489;28;19986;-70
2023/12/02 09:38:22;;;;;;;;;;;22.50;99.90;;;;;;5092342;28;19913;-68
2023/12/02 09:40:49;;;;;;;;;;;22.50;99.90;;;;;;5092620;28;19915;-66
2023/12/02 09:43:15;;;;;;;;;;;22.50;99.90;;;;;;5092427;28;19908;-70
2023/12/02 09:45:53;;;;;;;;;;;22.60;99.90;;;;;;5092621;28;19933;-68
2023/12/02 09:48:22;;;;;;;;;;;22.60;99.90;;;;;;5092403;28;20431;-68
2023/12/02 09:51:03;;;;;;;;;;;22.60;99.90;;;;;;5092261;28;19928;-68
2023/12/02 09:53:32;;;;;;;;;;;22.60;99.90;;;;;;5092384;28;19920;-70
2023/12/02 09:56:00;;;;;;;;;;;22.60;99.90;;;;;;5092404;28;19916;-69
2023/12/02 09:58:46;;;;;;;;;;;22.70;99.90;;;;;;5092271;28;20289;-68
2023/12/02 10:01:16;;;;;;;;;;;22.80;99.90;;;;;;5091849;28;20002;-68
2023/12/02 10:03:57;;;;;;;;;;;22.80;99.90;;;;;;5092343;28;19912;-67
2023/12/02 10:06:34;;;;;;;;;;;22.50;99.90;;;;;;5092338;28;20441;-67
2023/12/02 10:09:01;;;;;;;;;;;22.00;99.90;;;;;;5094879;28;20493;-69
2023/12/02 10:11:28;;;;;;;;;;;21.80;99.90;;;;;;5095813;28;19908;-67
2023/12/02 10:14:02;;;;;;;;;;;21.60;99.90;;;;;;5095875;28;20343;-70
2023/12/02 10:16:32;;;;;;;;;;;21.40;99.90;;;;;;5095701;28;19916;-69
2023/12/02 10:19:00;;;;;;;;;;;21.20;99.90;;;;;;5095715;28;20323;-70
2023/12/02 10:21:32;;;;;;;;;;;20.80;99.90;;;;;;5095782;28;19922;-70
2023/12/02 10:24:11;;;;;;;;;;;20.60;99.90;;;;;;5095564;28;19969;-69
2023/12/02 10:26:38;;;;;;;;;;;20.30;99.90;;;;;;5095840;28;19912;-70
2023/12/02 10:29:23;;;;;;;;;;;19.90;99.90;;;;;;5095997;28;19961;-69
2023/12/02 10:32:01;;;;;;;;;;;19.50;99.90;;;;;;5095951;28;19915;-69
2023/12/02 10:34:28;;;;;;;;;;;19.20;99.90;;;;;;5095741;28;19926;-70
2023/12/02 10:36:58;;;;;;;;;;;19.00;99.90;;;;;;5095476;28;19969;-69
2023/12/02 10:39:31;;;;;;;;;;;18.90;99.90;;;;;;5095456;28;20361;-68
2023/12/02 10:41:59;;;;;;;;;;;18.80;99.90;;;;;;5095710;28;19908;-72
2023/12/02 10:44:29;;;;;;;;;;;18.70;99.90;;;;;;5095349;28;20331;-70
2023/12/02 10:46:58;;;;;;;;;;;18.70;99.90;;;;;;5095588;28;19908;-70
2023/12/02 10:49:25;;;;;;;;;;;18.70;99.90;;;;;;5077117;28;19912;-69
2023/12/02 10:51:54;;;;;;;;;;;18.70;99.90;;;;;;5077049;28;19912;-68
2023/12/02 10:54:23;;;;;;;;;;;18.70;99.90;;;;;;5094962;28;19916;-68
2023/12/02 10:56:52;;;;;;;;;;;18.70;99.90;;;;;;5094951;28;19931;-66
2023/12/02 10:59:21;;;;;;;;;;;18.80;99.90;;;;;;5095151;28;19909;-67
2023/12/02 11:01:54;;;;;;;;;;;18.90;99.90;;;;;;5095295;28;20004;-67
2023/12/02 11:04:23;;;;;;;;;;;18.90;99.90;;;;;;5094865;28;19948;-67
2023/12/02 11:06:54;;;;;;;;;;;18.80;99.90;;;;;;5095222;28;19908;-69
2023/12/02 11:09:56;;;;;;;;;;;18.90;99.90;;;;;;5094841;28;19909;-68
2023/12/02 11:12:41;;;;;;;;;;;18.90;99.90;;;;;;5052638;28;19958;-68
2023/12/02 11:15:09;;;;;;;;;;;18.90;99.90;;;;;;5091998;28;19916;-67
2023/12/02 11:17:41;;;;;;;;;;;18.90;99.90;;;;;;5094796;28;20061;-68
2023/12/02 11:20:11;;;;;;;;;;;18.90;99.90;;;;;;5094794;28;20370;-68
2023/12/02 11:22:56;;;;;;;;;;;18.90;99.90;;;;;;5094534;28;19912;-67
2023/12/02 11:25:23;;;;;;;;;;;18.90;99.90;;;;;;5094619;28;20182;-68
2023/12/02 11:27:49;;;;;;;;;;;18.90;99.90;;;;;;5094244;28;20377;-66
2023/12/02 11:30:16;;;;;;;;;;;18.90;99.90;;;;;;5094379;28;19912;-67
2023/12/02 11:32:49;;;;;;;;;;;18.90;99.90;;;;;;5094725;28;19904;-67
2023/12/02 11:35:24;;;;;;;;;;;18.90;99.90;;;;;;5094426;28;19963;-68
2023/12/02 11:37:56;;;;;;;;;;;19.00;99.90;;;;;;5094165;28;19908;-68
2023/12/02 11:40:27;;;;;;;;;;;18.90;99.90;;;;;;5094444;28;19954;-68
2023/12/02 11:43:02;;;;;;;;;;;18.90;99.90;;;;;;5094424;28;20001;-69
2023/12/02 11:45:33;;;;;;;;;;;19.00;99.90;;;;;;5094330;28;19991;-69
2023/12/02 11:48:00;;;;;;;;;;;19.00;99.90;;;;;;5094113;28;19953;-68
2023/12/02 11:50:26;;;;;;;;;;;18.80;99.90;;;;;;5093991;28;19914;-68
2023/12/02 11:53:12;;;;;;;;;;;18.70;99.90;;;;;;5094100;28;19931;-69
2023/12/02 11:55:41;;;;;;;;;;;18.70;99.90;;;;;;5094079;28;19916;-69
2023/12/02 11:58:21;;;;;;;;;;;18.70;99.90;;;;;;5093961;28;19908;-68
2023/12/02 12:00:48;;;;;;;;;;;18.60;99.90;;;;;;5093873;28;19909;-68
2023/12/02 12:03:15;;;;;;;;;;;18.60;99.90;;;;;;5093966;28;19982;-68
2023/12/02 12:05:48;;;;;;;;;;;18.60;99.90;;;;;;5094167;28;19915;-72
2023/12/02 12:08:18;;;;;;;;;;;18.60;99.90;;;;;;5094071;28;19908;-69
2023/12/02 12:10:46;;;;;;;;;;;18.60;99.90;;;;;;5093500;28;19915;-69
2023/12/02 12:13:14;;;;;;;;;;;18.50;99.90;;;;;;5093870;28;19908;-68
2023/12/02 12:15:42;;;;;;;;;;;18.50;99.90;;;;;;5094065;28;20057;-67
2023/12/02 12:18:10;;;;;;;;;;;18.60;99.90;;;;;;5093850;28;20392;-68
2023/12/02 12:20:37;;;;;;;;;;;18.60;99.90;;;;;;5093629;28;19908;-69
2023/12/02 12:23:04;;;;;;;;;;;18.50;99.90;;;;;;5093539;28;20383;-68
2023/12/02 12:25:31;;;;;;;;;;;18.50;99.90;;;;;;5093367;28;19908;-69
2023/12/02 12:28:04;;;;;;;;;;;18.50;99.90;;;;;;5093541;28;20361;-68
2023/12/02 12:30:44;;;;;;;;;;;18.40;99.90;;;;;;5093510;28;20006;-69
2023/12/02 12:33:12;;;;;;;;;;;18.50;99.90;;;;;;5093295;28;19912;-68
2023/12/02 12:35:39;;;;;;;;;;;18.50;99.90;;;;;;5092930;28;19961;-68
2023/12/02 12:38:07;;;;;;;;;;;18.50;99.90;;;;;;5093245;28;20352;-69
2023/12/02 12:40:35;;;;;;;;;;;18.40;99.90;;;;;;5093245;28;19915;-68
2023/12/02 12:43:02;;;;;;;;;;;18.50;99.90;;;;;;5093018;28;19908;-68
2023/12/02 12:45:31;;;;;;;;;;;18.40;99.90;;;;;;5093237;28;20340;-68
2023/12/02 12:47:57;;;;;;;;;;;18.40;99.90;;;;;;5093077;28;19962;-67
2023/12/02 12:50:24;;;;;;;;;;;18.40;99.90;;;;;;5093338;28;20391;-68
2023/12/02 12:52:52;;;;;;;;;;;18.40;99.90;;;;;;5092948;28;20373;-69
2023/12/02 12:55:22;;;;;;;;;;;18.40;99.90;;;;;;5093083;28;19916;-67
2023/12/02 12:57:58;;;;;;;;;;;18.30;99.90;;;;;;5092788;28;19967;-67
2023/12/02 13:00:28;;;;;;;;;;;18.30;99.90;;;;;;5092889;28;19908;-67
2023/12/02 13:03:12;;;;;;;;;;;18.30;99.90;;;;;;5092922;28;20288;-69
2023/12/02 13:05:40;;;;;;;;;;;18.40;99.90;;;;;;5093125;28;19908;-70
2023/12/02 13:08:29;;;;;;;;;;;18.30;99.90;;;;;;5092747;28;19943;-68
2023/12/02 13:10:59;;;;;;;;;;;18.30;99.90;;;;;;5092942;28;19912;-68
2023/12/02 13:13:27;;;;;;;;;;;18.30;99.90;;;;;;5093004;28;20270;-68
2023/12/02 13:15:53;;;;;;;;;;;18.40;99.90;;;;;;5092913;28;19916;-71
2023/12/02 13:18:20;;;;;;;;;;;18.30;99.90;;;;;;5092712;28;20292;-68
2023/12/02 13:20:49;;;;;;;;;;;18.30;99.90;;;;;;5092826;28;19933;-68
2023/12/02 13:23:18;;;;;;;;;;;18.30;99.90;;;;;;5092832;28;19915;-68
2023/12/02 13:25:45;;;;;;;;;;;18.30;99.90;;;;;;5092941;28;19961;-69
2023/12/02 13:28:25;;;;;;;;;;;18.30;99.90;;;;;;5092644;28;19908;-68
2023/12/02 13:30:53;;;;;;;;;;;18.30;99.90;;;;;;5092638;28;19908;-67
2023/12/02 13:33:31;;;;;;;;;;;18.40;99.90;;;;;;5092871;28;19915;-67
2023/12/02 13:36:06;;;;;;;;;;;18.20;99.90;;;;;;5092623;28;19916;-67
2023/12/02 13:38:38;;;;;;;;;;;18.30;99.90;;;;;;5092605;28;19912;-67
2023/12/02 13:41:25;;;;;;;;;;;18.30;99.90;;;;;;5092560;28;19908;-67
2023/12/02 13:43:52;;;;;;;;;;;18.30;99.90;;;;;;5094914;28;19970;-67
2023/12/02 13:46:27;;;;;;;;;;;18.30;99.90;;;;;;5096890;28;19916;-68
2023/12/02 13:48:53;;;;;;;;;;;18.10;99.90;;;;;;5096516;28;19919;-69
2023/12/02 13:51:35;;;;;;;;;;;18.10;99.90;;;;;;5096768;28;20314;-68
2023/12/02 13:54:13;;;;;;;;;;;18.00;99.90;;;;;;5096417;28;20389;-71
2023/12/02 13:56:46;;;;;;;;;;;18.00;99.90;;;;;;5096606;28;20405;-66
2023/12/02 13:59:28;;;;;;;;;;;18.00;99.90;;;;;;5096548;28;19912;-67
2023/12/02 14:02:07;;;;;;;;;;;18.00;99.90;;;;;;5096400;28;19915;-67
2023/12/02 14:04:52;;;;;;;;;;;18.00;99.90;;;;;;5096300;28;19974;-69
2023/12/02 14:07:23;;;;;;;;;;;18.10;99.90;;;;;;5096374;28;20357;-68
2023/12/02 14:09:52;;;;;;;;;;;18.00;99.90;;;;;;5096622;28;19908;-68
2023/12/02 14:12:37;;;;;;;;;;;18.00;99.90;;;;;;5096229;28;19915;-68
2023/12/02 14:15:03;;;;;;;;;;;18.00;99.90;;;;;;5095946;28;20368;-68
2023/12/02 14:17:45;;;;;;;;;;;18.00;99.90;;;;;;5096221;28;19915;-69
2023/12/02 14:20:15;;;;;;;;;;;18.00;99.90;;;;;;5096057;28;19908;-68
2023/12/02 14:23:00;;;;;;;;;;;18.00;99.90;;;;;;5095747;28;19908;-67
2023/12/02 14:25:42;;;;;;;;;;;17.90;99.90;;;;;;5095727;28;19909;-67